Estación meteorológica de Montseny - Vallcàrquera (Vallès Oriental, Parc Natural del Montseny)

Consulta los datos en tiempo real de la estación meteorológica de Montseny - Vallcàrquera





Hora UTC 18:55
Temperatura 23.5 ºC
Humedad 68.3 %
Pluja 0.0 mm
Velocidad viento 0.7 km/h
Dirección viento WNW
Radiación solar 0.0 W/m²

Datos diarios 2026-08-31



Hora UTC (invierno +1h; verano +2h)
Temperatura (ºC) Humedad (%) Velocidad viento (km/h) Precipitación (mm) Radiación solar (W/m²)
Hora UTC Aire Humedad Vel. Dir. Vel. Max Dir. Intent. máx 5 min. Rad. Sol.
00:05 17.8 57.5 2.6 NE 2.6 ENE 0.0 0.0
00:10 17.9 57.0 3.0 NE 6.7 ENE 0.0 0.0
00:15 18.2 56.1 2.0 NE 3.9 NE 0.0 0.0
00:20 18.1 56.6 1.8 NE 4.2 ENE 0.0 0.0
00:25 18.0 57.5 3.0 ENE 5.3 ENE 0.0 0.0
00:30 18.0 57.1 2.3 NE 4.2 E 0.0 0.0
00:35 17.9 57.7 1.1 NE 3.2 NE 0.0 0.0
00:40 17.7 58.8 2.0 NE 4.9 ENE 0.0 0.0
00:45 17.8 58.7 1.9 NNE 3.2 NE 0.0 0.0
00:50 17.6 59.7 2.5 NE 4.6 NE 0.0 0.0
00:55 17.6 59.8 2.4 NE 4.2 ENE 0.0 0.0
01:00 17.6 60.1 1.8 NE 4.2 NE 0.0 0.0
01:05 17.6 60.0 1.5 NNE 3.2 NE 0.0 0.0
01:10 17.6 60.6 1.1 NNE 3.5 NE 0.0 0.0
01:15 17.6 60.6 1.6 NNE 2.5 NNW 0.0 0.0
01:20 17.6 60.5 1.9 NE 3.2 ENE 0.0 0.0
01:25 17.5 61.5 2.4 NE 3.9 NNE 0.0 0.0
01:30 17.4 62.4 2.7 NE 5.3 ENE 0.0 0.0
01:35 17.4 62.3 1.4 NE 3.9 NE 0.0 0.0
01:40 17.2 63.4 2.2 NE 5.3 E 0.0 0.0
01:45 17.3 62.8 1.0 NNE 2.5 N 0.0 0.0
01:50 17.3 62.7 1.8 NE 3.5 NE 0.0 0.0
01:55 17.4 62.9 2.1 NE 4.6 NE 0.0 0.0
02:00 17.5 62.0 1.1 NNE 2.5 NE 0.0 0.0
02:05 17.4 63.0 2.5 NE 4.2 ENE 0.0 0.0
02:10 17.3 63.0 1.5 NE 3.5 E 0.0 0.0
02:15 17.1 64.0 2.1 NE 3.2 ENE 0.0 0.0
02:20 17.0 64.0 1.6 NE 3.9 ENE 0.0 0.0
02:25 17.1 63.5 0.9 N 2.1 N 0.0 0.0
02:30 17.2 63.2 2.0 NE 3.9 ENE 0.0 0.0
02:35 17.0 64.1 2.1 NE 4.9 ENE 0.0 0.0
02:40 17.1 63.7 1.9 NNE 4.6 NE 0.0 0.0
02:45 17.1 63.9 0.9 NE 3.2 E 0.0 0.0
02:50 16.9 64.7 2.1 NE 3.9 NNE 0.0 0.0
02:55 17.0 64.1 1.5 NNE 3.2 ENE 0.0 0.0
03:00 16.9 64.4 1.5 NE 3.2 ENE 0.0 0.0
03:05 16.8 64.7 1.7 NE 3.5 NNE 0.0 0.0
03:10 16.7 65.0 1.3 N 2.5 ENE 0.0 0.0
03:15 16.8 64.1 0.9 NNW 2.5 N 0.0 0.0
03:20 16.9 63.9 1.3 NNE 2.8 N 0.0 0.0
03:25 16.9 64.5 1.4 NNE 2.5 ENE 0.0 0.0
03:30 16.9 64.7 1.4 NNE 2.5 N 0.0 0.0
03:35 16.8 65.2 2.7 NE 4.6 ENE 0.0 0.0
03:40 16.4 66.8 2.8 ENE 4.6 ENE 0.0 0.0
03:45 16.5 66.4 1.5 NNE 2.1 N 0.0 0.0
03:50 16.4 66.5 1.2 NNE 2.8 ENE 0.0 0.0
03:55 16.4 66.4 1.3 NNE 2.5 ENE 0.0 0.0
04:00 16.4 66.7 1.2 NNE 2.8 ENE 0.0 0.0
04:05 16.4 66.9 1.7 NNE 2.8 N 0.0 0.0
04:10 16.4 66.6 1.6 NNE 3.5 ENE 0.0 0.0
04:15 16.4 67.0 0.6 NNE 1.8 NNE 0.0 0.0
04:20 16.3 67.4 1.3 NNE 2.5 NNE 0.0 0.0
04:25 16.2 68.0 1.5 NE 4.2 NNE 0.0 0.0
04:30 16.1 68.3 2.4 ENE 4.6 ENE 0.0 0.0
04:35 16.2 68.3 1.4 NNE 2.1 NE 0.0 0.0
04:40 16.1 68.4 1.6 NNE 4.6 NE 0.0 0.0
04:45 16.2 68.3 1.7 NNE 3.2 ENE 0.0 0.0
04:50 16.1 68.5 1.3 NNE 2.5 E 0.0 0.0
04:55 16.0 69.1 1.6 NNE 3.5 E 0.0 0.0
05:00 16.0 68.8 1.6 NNE 2.5 NE 0.0 0.0
05:05 16.0 68.9 1.6 NNE 2.8 ENE 0.0 0.0
05:10 16.0 69.2 0.8 NE 2.5 NE 0.0 0.0
05:15 15.9 69.8 0.8 NE 2.5 ENE 0.0 0.8
05:20 16.0 69.6 2.1 NNE 3.9 ENE 0.0 3.0
05:25 16.0 69.8 1.6 N 2.8 NNW 0.0 4.5
05:30 15.9 70.2 1.3 NNE 2.5 NE 0.0 7.2
05:35 15.8 70.7 1.9 NNE 4.6 ENE 0.0 9.2
05:40 15.9 70.1 2.0 N 3.2 N 0.0 12.1
05:45 16.0 70.5 1.0 NNE 3.2 NE 0.0 13.9
05:50 15.9 70.9 1.2 NNE 2.1 E 0.0 15.9
05:55 15.9 71.0 1.0 NNE 2.1 0.0 18.3
06:00 15.9 71.3 0.8 NNE 2.5 ENE 0.0 19.9
06:05 15.8 71.9 2.0 NNE 5.3 ENE 0.0 22.3
06:10 16.0 71.6 2.0 NE 3.5 ENE 0.0 24.7
06:15 16.0 71.8 2.9 NE 6.0 ENE 0.0 26.6
06:20 16.0 71.9 2.2 ENE 3.5 ENE 0.0 28.4
06:25 16.2 71.4 1.4 NNE 2.8 ENE 0.0 30.8
06:30 16.4 71.1 1.1 NNE 2.5 E 0.0 83.4
06:35 17.0 68.9 3.1 ENE 5.3 ENE 0.0 184.9
06:40 18.1 65.5 2.2 E 6.7 ENE 0.0 199.9
06:45 18.2 65.3 3.3 ENE 6.7 ENE 0.0 215.5
06:50 18.8 62.7 2.6 ENE 5.3 ENE 0.0 232.5
06:55 19.5 59.9 3.2 E 4.9 ENE 0.0 249.1
07:00 20.1 59.6 1.7 E 6.0 E 0.0 251.5
07:05 20.1 59.5 2.8 E 6.4 ENE 0.0 281.4
07:10 20.5 58.1 1.8 E 4.2 ESE 0.0 298.2
07:15 21.3 56.2 1.2 E 3.2 E 0.0 314.3
07:20 21.9 53.9 2.2 E 4.6 E 0.0 330.3
07:25 21.9 53.3 2.2 E 4.9 E 0.0 346.7
07:30 22.4 52.8 1.1 ESE 2.8 SSE 0.0 362.9
07:35 23.0 51.5 1.1 SE 2.8 S 0.0 379.1
07:40 23.5 49.9 1.1 SSE 2.5 SSW 0.0 395.8
07:45 23.5 49.9 1.6 SSE 3.2 SSE 0.0 410.4
07:50 23.7 49.2 1.6 SSE 4.9 S 0.0 427.3
07:55 23.8 48.6 2.6 S 5.3 SSW 0.0 444.7
08:00 23.8 48.9 3.3 S 6.4 SSW 0.0 462.3
08:05 24.0 47.9 2.4 S 6.0 SSW 0.0 478.4
08:10 24.5 46.8 2.8 S 8.1 SSW 0.0 492.9
08:15 25.2 44.6 3.7 SE 8.8 ENE 0.0 506.4
08:20 25.1 45.8 3.6 ESE 10.9 E 0.0 521.1
08:25 25.8 44.0 3.5 ESE 9.9 E 0.0 534.3
08:30 26.0 45.2 3.2 ESE 10.6 SE 0.0 548.3
08:35 25.8 45.8 4.8 E 13.8 ENE 0.0 562.1
08:40 25.7 48.3 4.6 ESE 9.9 ENE 0.0 575.3
08:45 26.2 49.8 2.4 SE 7.8 ESE 0.0 586.8
08:50 26.6 50.9 3.6 SE 7.8 ESE 0.0 597.1
08:55 26.4 49.5 3.0 SSW 8.5 SSW 0.0 609.1
09:00 26.5 52.0 3.2 S 7.8 SSW 0.0 621.5
09:05 26.8 52.2 2.2 SSE 5.6 SSE 0.0 635.0
09:10 27.4 52.0 4.3 ESE 14.1 E 0.0 645.9
09:15 26.6 54.8 3.9 SE 10.9 E 0.0 660.9
09:20 26.6 54.5 4.8 NE 10.2 SW 0.0 672.4
09:25 26.8 54.6 2.9 E 8.1 ESE 0.0 681.6
09:30 26.8 53.4 4.1 ESE 11.3 SSE 0.0 694.5
09:35 26.7 51.8 4.2 SSW 9.5 NE 0.0 709.7
09:40 26.7 51.5 2.7 SW 6.7 SW 0.0 727.2
09:45 26.7 53.6 4.5 NE 10.9 NNE 0.0 727.5
09:50 26.7 54.3 2.9 ENE 6.4 S 0.0 663.6
09:55 27.0 52.3 3.0 E 8.1 SE 0.0 724.2
10:00 27.0 52.0 3.1 E 7.4 E 0.0 370.0
10:05 26.8 50.7 3.6 ESE 11.6 NE 0.0 763.8
10:10 27.1 48.7 3.5 E 8.8 SSW 0.0 764.3
10:15 27.6 48.4 4.2 SE 10.9 SE 0.0 764.7
10:20 27.8 45.5 4.8 SE 12.7 S 0.0 775.1
10:25 27.9 44.7 3.5 E 9.9 S 0.0 784.8
10:30 27.9 44.2 4.0 ENE 9.2 WNW 0.0 785.1
10:35 28.3 44.4 3.9 NW 10.2 NW 0.0 784.5
10:40 28.4 44.8 3.1 ESE 7.4 ENE 0.0 793.8
10:45 29.0 42.4 4.2 SW 13.4 S 0.0 799.2
10:50 29.2 41.4 3.5 SSW 10.2 S 0.0 806.0
10:55 29.1 42.1 2.3 ESE 6.4 S 0.0 802.0
11:00 29.1 43.4 3.9 SSW 10.2 WSW 0.0 807.0
11:05 28.2 45.7 5.5 NNW 14.1 NNE 0.0 805.0
11:10 28.6 45.2 2.8 NNE 10.6 N 0.0 816.0
11:15 29.0 44.3 3.2 SSE 9.5 S 0.0 815.0
11:20 29.1 44.0 2.5 NE 7.8 N 0.0 808.0
11:25 29.7 43.1 2.0 ESE 9.9 SSE 0.0 824.0
11:30 30.1 42.2 3.5 SSW 9.2 SW 0.0 821.0
11:35 29.9 42.8 2.5 WNW 7.1 NNW 0.0 828.0
11:40 30.0 42.7 3.8 SSW 9.5 SW 0.0 831.0
11:45 29.6 42.7 6.0 NNW 16.2 WNW 0.0 831.0
11:50 29.6 43.3 3.6 S 9.9 SW 0.0 822.0
11:55 29.2 44.9 3.9 SE 9.2 ENE 0.0 830.0
12:00 29.2 44.2 5.6 E 13.4 ESE 0.0 835.0
12:05 29.4 43.4 3.6 SSE 11.3 SW 0.0 829.0
12:10 29.7 43.0 3.0 E 8.5 S 0.0 834.0
12:15 29.8 43.2 3.2 NNE 12.4 ENE 0.0 828.0
12:20 30.5 42.2 2.6 S 7.4 SW 0.0 820.0
12:25 31.3 40.3 5.4 SW 13.4 SW 0.0 829.0
12:30 30.3 41.8 3.2 SE 9.2 SSW 0.0 837.0
12:35 30.0 43.1 3.4 SSE 11.3 SE 0.0 822.0
12:40 30.2 43.9 4.9 ESE 10.2 SE 0.0 821.0
12:45 30.0 44.3 4.4 ENE 14.1 E 0.0 815.0
12:50 30.2 44.2 2.8 SSW 10.2 WSW 0.0 811.0
12:55 30.3 44.3 5.6 E 11.6 ENE 0.0 804.0
13:00 30.4 44.7 4.1 SSE 19.1 SSW 0.0 796.7
13:05 30.2 44.9 3.3 WSW 9.9 SW 0.0 778.2
13:10 30.6 44.3 2.8 SSW 8.1 SSE 0.0 782.7
13:15 30.9 43.8 4.6 SW 18.7 SW 0.0 782.5
13:20 30.7 44.6 4.0 ESE 10.6 NNE 0.0 772.5
13:25 29.9 46.6 4.2 SSE 9.5 SW 0.0 767.6
13:30 29.8 46.8 3.5 SE 12.7 S 0.0 760.6
13:35 29.8 47.4 5.2 E 14.1 NE 0.0 751.9
13:40 29.1 50.2 5.4 ESE 16.2 SE 0.0 740.1
13:45 29.7 49.3 3.1 SE 10.2 ENE 0.0 734.0
13:50 29.9 49.4 4.6 SE 11.3 E 0.0 728.5
13:55 29.4 51.4 7.4 E 16.9 E 0.0 705.8
14:00 29.0 53.1 4.9 SE 14.8 ENE 0.0 725.8
14:05 29.3 52.4 6.7 ENE 20.5 ENE 0.0 544.6
14:10 28.7 55.1 5.3 SE 13.8 ENE 0.0 648.6
14:15 28.8 55.0 3.8 ENE 12.4 S 0.0 381.9
14:20 28.9 55.4 5.2 S 14.8 S 0.0 734.1
14:25 29.4 54.1 4.9 SSE 10.2 W 0.0 516.5
14:30 27.9 58.9 5.7 N 16.9 W 0.0 192.8
14:35 27.4 60.8 4.4 NW 19.4 SW 0.0 641.1
14:40 28.0 59.6 2.7 NNW 10.9 0.0 644.4
14:45 28.5 58.1 5.2 E 17.3 E 0.0 636.2
14:50 27.5 61.2 4.5 ENE 13.1 N 0.0 487.6
14:55 27.6 61.2 3.6 NE 10.6 NNE 0.0 501.9
15:00 27.9 60.2 2.9 S 10.6 SW 0.0 403.7
15:05 28.0 59.8 3.5 SW 10.9 NNE 0.0 494.8
15:10 27.7 61.2 5.0 E 13.1 E 0.0 373.7
15:15 27.1 63.6 6.9 E 15.2 ENE 0.0 589.7
15:20 27.5 62.5 3.5 ESE 10.2 SSE 0.0 421.8
15:25 27.0 63.9 5.5 SE 15.9 ENE 0.0 325.1
15:30 26.6 64.8 2.6 ESE 7.8 ESE 0.0 273.8
15:35 26.2 65.9 4.1 ENE 12.0 E 0.0 168.5
15:40 25.9 66.9 4.6 E 10.2 SE 0.0 292.0
15:45 26.2 65.6 6.0 E 11.6 ENE 0.0 340.8
15:50 26.3 65.1 5.3 ENE 10.6 E 0.0 283.0
15:55 26.6 63.7 4.6 ESE 9.9 E 0.0 241.1
16:00 26.0 65.3 4.4 SE 13.4 E 0.0 128.0
16:05 25.5 66.7 3.0 ESE 8.5 SSE 0.0 161.1
16:10 25.5 66.1 3.9 W 11.6 NNW 0.0 153.2
16:15 25.5 66.1 3.1 NNE 7.8 NW 0.0 127.5
16:20 25.3 67.1 3.4 WNW 7.4 SW 0.0 109.1
16:30 25.3 65.4 2.5 WNW 6.7 WNW 0.0 75.5
16:35 25.2 63.8 4.4 WSW 14.1 SSW 0.0 76.9
16:40 25.3 63.0 4.3 W 11.3 WSW 0.0 81.6
16:55 25.1 61.3 2.9 WSW 8.8 WSW 0.0 93.6
17:00 25.4 60.2 2.5 S 8.5 SSW 0.0 87.7
17:05 25.3 59.6 2.1 W 6.0 ENE 0.0 83.6
17:10 25.3 59.2 4.7 ENE 9.5 ESE 0.0 81.9
17:15 25.0 59.2 3.9 W 8.1 ENE 0.0 71.2
17:20 25.0 59.1 4.8 WSW 10.9 WSW 0.0 66.9
17:25 24.7 59.7 5.6 WSW 11.6 SSW 0.0 77.0
17:30 24.7 59.8 2.4 W 6.0 WNW 0.0 74.1
17:35 24.6 60.3 5.2 W 12.4 WSW 0.0 61.5
17:40 24.4 61.2 2.2 WSW 6.0 NNW 0.0 50.0
17:45 24.3 61.5 2.0 NW 4.9 SSW 0.0 49.5
17:50 24.3 61.5 2.1 W 5.3 ENE 0.0 35.2
17:55 24.2 61.7 2.2 NNE 8.8 NE 0.0 20.6
18:00 24.2 62.0 3.0 NNE 6.4 ENE 0.0 16.1
18:05 24.1 62.6 1.8 WSW 5.3 NE 0.0 10.5
18:10 24.0 63.7 3.1 W 8.8 NW 0.0 7.2
18:15 23.9 64.9 3.6 WNW 7.4 NW 0.0 5.2
18:20 23.8 65.0 2.6 NNE 8.5 ENE 0.0 2.6
18:25 23.8 64.6 3.4 ENE 10.6 ENE 0.0 1.4
18:30 23.7 64.4 1.9 WSW 4.6 WSW 0.0 0.4
18:35 23.7 64.7 1.9 SW 7.1 ENE 0.0 0.0
18:40 23.7 65.5 1.2 W 4.2 W 0.0 0.0
18:45 23.6 65.9 1.4 SSW 3.9 W 0.0 0.0
18:50 23.5 66.7 0.8 S 3.9 S 0.0 0.0
18:55 23.5 68.3 0.7 WNW 4.6 W 0.0 0.0
Máxima 31.3 71.9 7.4 E 20.5 ENE 0.0 837.0
Mínima 15.8 40.3
Total 0.0